sensor_id;sensor_type;location;lat;lon;timestamp;temperature;humidity
21108;DHT22;10712;52.944;9.098;2023-05-29T00:00:20;11.30;78.70
21108;DHT22;10712;52.944;9.098;2023-05-29T00:02:47;11.30;78.90
21108;DHT22;10712;52.944;9.098;2023-05-29T00:05:14;11.30;78.90
21108;DHT22;10712;52.944;9.098;2023-05-29T00:07:41;11.30;79.00
21108;DHT22;10712;52.944;9.098;2023-05-29T00:10:08;11.30;79.00
21108;DHT22;10712;52.944;9.098;2023-05-29T00:12:36;11.30;79.00
21108;DHT22;10712;52.944;9.098;2023-05-29T00:15:03;11.20;79.00
21108;DHT22;10712;52.944;9.098;2023-05-29T00:17:30;11.20;79.20
21108;DHT22;10712;52.944;9.098;2023-05-29T00:19:59;11.20;79.20
21108;DHT22;10712;52.944;9.098;2023-05-29T00:22:27;11.20;79.30
21108;DHT22;10712;52.944;9.098;2023-05-29T00:24:53;11.20;79.30
21108;DHT22;10712;52.944;9.098;2023-05-29T00:27:19;11.10;79.30
21108;DHT22;10712;52.944;9.098;2023-05-29T00:29:45;11.10;79.40
21108;DHT22;10712;52.944;9.098;2023-05-29T00:32:11;11.10;79.40
21108;DHT22;10712;52.944;9.098;2023-05-29T00:34:37;11.10;79.30
21108;DHT22;10712;52.944;9.098;2023-05-29T00:37:03;11.10;79.30
21108;DHT22;10712;52.944;9.098;2023-05-29T00:39:30;11.10;79.40
21108;DHT22;10712;52.944;9.098;2023-05-29T00:41:56;11.10;79.40
21108;DHT22;10712;52.944;9.098;2023-05-29T00:44:23;11.00;79.50
21108;DHT22;10712;52.944;9.098;2023-05-29T00:46:51;11.00;79.70
21108;DHT22;10712;52.944;9.098;2023-05-29T00:49:19;11.00;79.90
21108;DHT22;10712;52.944;9.098;2023-05-29T00:51:48;11.00;79.90
21108;DHT22;10712;52.944;9.098;2023-05-29T00:54:21;10.90;80.00
21108;DHT22;10712;52.944;9.098;2023-05-29T00:56:52;10.90;80.10
21108;DHT22;10712;52.944;9.098;2023-05-29T00:59:19;10.90;80.10
21108;DHT22;10712;52.944;9.098;2023-05-29T01:01:50;10.90;80.40
21108;DHT22;10712;52.944;9.098;2023-05-29T01:04:17;10.90;80.30
21108;DHT22;10712;52.944;9.098;2023-05-29T01:06:43;10.90;80.20
21108;DHT22;10712;52.944;9.098;2023-05-29T01:09:10;10.90;79.90
21108;DHT22;10712;52.944;9.098;2023-05-29T01:26:17;10.80;79.40
21108;DHT22;10712;52.944;9.098;2023-05-29T01:28:56;10.80;79.20
21108;DHT22;10712;52.944;9.098;2023-05-29T01:31:26;10.80;79.10
21108;DHT22;10712;52.944;9.098;2023-05-29T01:33:58;10.80;79.00
21108;DHT22;10712;52.944;9.098;2023-05-29T01:36:25;10.80;78.60
21108;DHT22;10712;52.944;9.098;2023-05-29T01:38:53;10.80;78.70
21108;DHT22;10712;52.944;9.098;2023-05-29T01:41:22;10.80;78.50
21108;DHT22;10712;52.944;9.098;2023-05-29T01:43:50;10.80;78.00
21108;DHT22;10712;52.944;9.098;2023-05-29T01:46:17;10.80;77.90
21108;DHT22;10712;52.944;9.098;2023-05-29T01:48:45;10.80;77.90
21108;DHT22;10712;52.944;9.098;2023-05-29T01:51:12;10.80;77.50
21108;DHT22;10712;52.944;9.098;2023-05-29T01:53:39;10.80;77.50
21108;DHT22;10712;52.944;9.098;2023-05-29T01:56:06;10.80;77.20
21108;DHT22;10712;52.944;9.098;2023-05-29T01:58:34;10.70;77.20
21108;DHT22;10712;52.944;9.098;2023-05-29T02:01:01;10.70;77.20
21108;DHT22;10712;52.944;9.098;2023-05-29T02:03:29;10.70;77.10
21108;DHT22;10712;52.944;9.098;2023-05-29T02:05:59;10.60;77.20
21108;DHT22;10712;52.944;9.098;2023-05-29T02:08:26;10.60;77.20
21108;DHT22;10712;52.944;9.098;2023-05-29T02:10:52;10.60;77.40
21108;DHT22;10712;52.944;9.098;2023-05-29T02:13:18;10.60;77.40
21108;DHT22;10712;52.944;9.098;2023-05-29T02:15:44;10.50;77.10
21108;DHT22;10712;52.944;9.098;2023-05-29T02:18:12;10.50;77.10
21108;DHT22;10712;52.944;9.098;2023-05-29T02:20:40;10.50;77.00
21108;DHT22;10712;52.944;9.098;2023-05-29T02:23:08;10.40;77.20
21108;DHT22;10712;52.944;9.098;2023-05-29T02:25:34;10.40;77.00
21108;DHT22;10712;52.944;9.098;2023-05-29T02:28:01;10.40;77.30
21108;DHT22;10712;52.944;9.098;2023-05-29T02:30:28;10.40;77.20
21108;DHT22;10712;52.944;9.098;2023-05-29T02:32:54;10.30;77.30
21108;DHT22;10712;52.944;9.098;2023-05-29T02:35:20;10.30;77.30
21108;DHT22;10712;52.944;9.098;2023-05-29T02:37:48;10.20;77.40
21108;DHT22;10712;52.944;9.098;2023-05-29T02:40:16;10.20;77.10
21108;DHT22;10712;52.944;9.098;2023-05-29T02:42:42;10.20;77.20
21108;DHT22;10712;52.944;9.098;2023-05-29T02:45:08;10.10;77.40
21108;DHT22;10712;52.944;9.098;2023-05-29T02:47:35;10.10;77.50
21108;DHT22;10712;52.944;9.098;2023-05-29T02:50:01;10.10;77.40
21108;DHT22;10712;52.944;9.098;2023-05-29T02:52:28;10.10;77.40
21108;DHT22;10712;52.944;9.098;2023-05-29T02:54:56;10.00;77.60
21108;DHT22;10712;52.944;9.098;2023-05-29T02:57:22;10.00;77.60
21108;DHT22;10712;52.944;9.098;2023-05-29T02:59:49;10.00;77.40
21108;DHT22;10712;52.944;9.098;2023-05-29T03:02:14;10.00;77.60
21108;DHT22;10712;52.944;9.098;2023-05-29T03:04:40;9.90;77.40
21108;DHT22;10712;52.944;9.098;2023-05-29T03:07:06;9.90;77.60
21108;DHT22;10712;52.944;9.098;2023-05-29T03:09:32;9.90;77.70
21108;DHT22;10712;52.944;9.098;2023-05-29T03:11:58;9.90;77.70
21108;DHT22;10712;52.944;9.098;2023-05-29T03:14:27;9.90;77.60
21108;DHT22;10712;52.944;9.098;2023-05-29T03:16:54;9.80;77.40
21108;DHT22;10712;52.944;9.098;2023-05-29T03:19:20;9.80;77.50
21108;DHT22;10712;52.944;9.098;2023-05-29T03:21:46;9.80;77.70
21108;DHT22;10712;52.944;9.098;2023-05-29T03:24:12;9.80;77.50
21108;DHT22;10712;52.944;9.098;2023-05-29T03:26:41;9.80;77.40
21108;DHT22;10712;52.944;9.098;2023-05-29T03:29:08;9.80;77.30
21108;DHT22;10712;52.944;9.098;2023-05-29T03:31:35;9.80;77.50
21108;DHT22;10712;52.944;9.098;2023-05-29T03:34:01;9.80;77.40
21108;DHT22;10712;52.944;9.098;2023-05-29T03:36:54;9.80;77.50
21108;DHT22;10712;52.944;9.098;2023-05-29T03:39:19;9.80;77.40
21108;DHT22;10712;52.944;9.098;2023-05-29T03:41:47;9.80;77.40
21108;DHT22;10712;52.944;9.098;2023-05-29T03:44:13;9.80;77.30
21108;DHT22;10712;52.944;9.098;2023-05-29T03:46:39;9.80;77.60
21108;DHT22;10712;52.944;9.098;2023-05-29T03:49:05;9.80;77.70
21108;DHT22;10712;52.944;9.098;2023-05-29T03:51:32;9.80;77.40
21108;DHT22;10712;52.944;9.098;2023-05-29T03:53:58;9.80;77.40
21108;DHT22;10712;52.944;9.098;2023-05-29T03:56:24;9.80;77.40
21108;DHT22;10712;52.944;9.098;2023-05-29T03:58:50;9.80;77.50
21108;DHT22;10712;52.944;9.098;2023-05-29T04:01:16;9.80;77.50
21108;DHT22;10712;52.944;9.098;2023-05-29T04:03:42;9.80;77.80
21108;DHT22;10712;52.944;9.098;2023-05-29T04:06:09;9.80;77.60
21108;DHT22;10712;52.944;9.098;2023-05-29T04:08:36;9.80;77.60
21108;DHT22;10712;52.944;9.098;2023-05-29T04:11:02;9.80;77.90
21108;DHT22;10712;52.944;9.098;2023-05-29T04:13:29;9.80;78.00
21108;DHT22;10712;52.944;9.098;2023-05-29T04:15:55;9.80;77.90
21108;DHT22;10712;52.944;9.098;2023-05-29T04:18:21;9.80;78.00
21108;DHT22;10712;52.944;9.098;2023-05-29T04:20:47;9.80;78.00
21108;DHT22;10712;52.944;9.098;2023-05-29T04:23:13;9.80;78.20
21108;DHT22;10712;52.944;9.098;2023-05-29T04:25:39;9.80;77.90
21108;DHT22;10712;52.944;9.098;2023-05-29T04:28:05;9.80;78.20
21108;DHT22;10712;52.944;9.098;2023-05-29T04:30:32;9.80;78.10
21108;DHT22;10712;52.944;9.098;2023-05-29T04:33:00;9.80;77.80
21108;DHT22;10712;52.944;9.098;2023-05-29T04:35:26;9.80;78.00
21108;DHT22;10712;52.944;9.098;2023-05-29T04:37:58;9.90;77.90
21108;DHT22;10712;52.944;9.098;2023-05-29T04:40:27;9.90;78.00
21108;DHT22;10712;52.944;9.098;2023-05-29T04:42:53;9.80;77.80
21108;DHT22;10712;52.944;9.098;2023-05-29T04:45:22;9.80;77.80
21108;DHT22;10712;52.944;9.098;2023-05-29T04:47:48;9.80;78.00
21108;DHT22;10712;52.944;9.098;2023-05-29T04:50:16;9.80;77.80
21108;DHT22;10712;52.944;9.098;2023-05-29T04:52:43;9.80;77.80
21108;DHT22;10712;52.944;9.098;2023-05-29T04:55:10;9.90;78.10
21108;DHT22;10712;52.944;9.098;2023-05-29T04:57:37;9.80;78.00
21108;DHT22;10712;52.944;9.098;2023-05-29T05:00:06;9.90;77.80
21108;DHT22;10712;52.944;9.098;2023-05-29T05:02:36;9.90;77.50
21108;DHT22;10712;52.944;9.098;2023-05-29T05:05:02;9.80;77.70
21108;DHT22;10712;52.944;9.098;2023-05-29T05:07:28;9.80;77.70
21108;DHT22;10712;52.944;9.098;2023-05-29T05:09:54;9.80;77.90
21108;DHT22;10712;52.944;9.098;2023-05-29T05:12:24;9.80;77.90
21108;DHT22;10712;52.944;9.098;2023-05-29T05:14:50;9.90;78.00
21108;DHT22;10712;52.944;9.098;2023-05-29T05:17:15;9.90;78.10
21108;DHT22;10712;52.944;9.098;2023-05-29T05:19:42;9.90;77.80
21108;DHT22;10712;52.944;9.098;2023-05-29T05:22:08;9.90;78.00
21108;DHT22;10712;52.944;9.098;2023-05-29T05:24:34;9.90;77.90
21108;DHT22;10712;52.944;9.098;2023-05-29T05:27:03;10.00;77.60
21108;DHT22;10712;52.944;9.098;2023-05-29T05:29:29;10.00;77.70
21108;DHT22;10712;52.944;9.098;2023-05-29T05:31:56;10.00;77.40
21108;DHT22;10712;52.944;9.098;2023-05-29T05:34:23;10.00;77.00
21108;DHT22;10712;52.944;9.098;2023-05-29T05:36:49;10.00;77.20
21108;DHT22;10712;52.944;9.098;2023-05-29T05:39:15;10.00;77.70
21108;DHT22;10712;52.944;9.098;2023-05-29T05:41:45;10.10;77.60
21108;DHT22;10712;52.944;9.098;2023-05-29T05:44:14;10.10;76.90
21108;DHT22;10712;52.944;9.098;2023-05-29T05:46:44;10.10;76.60
21108;DHT22;10712;52.944;9.098;2023-05-29T05:49:10;10.10;76.50
21108;DHT22;10712;52.944;9.098;2023-05-29T05:51:37;10.10;76.60
21108;DHT22;10712;52.944;9.098;2023-05-29T05:54:03;10.10;76.90
21108;DHT22;10712;52.944;9.098;2023-05-29T05:56:30;10.20;76.70
21108;DHT22;10712;52.944;9.098;2023-05-29T05:58:56;10.20;76.70
21108;DHT22;10712;52.944;9.098;2023-05-29T06:01:22;10.20;76.70
21108;DHT22;10712;52.944;9.098;2023-05-29T06:03:49;10.20;76.70
21108;DHT22;10712;52.944;9.098;2023-05-29T06:06:16;10.30;77.00
21108;DHT22;10712;52.944;9.098;2023-05-29T06:08:43;10.30;76.60
21108;DHT22;10712;52.944;9.098;2023-05-29T06:11:11;10.30;76.10
21108;DHT22;10712;52.944;9.098;2023-05-29T06:13:40;10.30;76.30
21108;DHT22;10712;52.944;9.098;2023-05-29T06:16:10;10.30;76.40
21108;DHT22;10712;52.944;9.098;2023-05-29T06:18:36;10.30;76.40
21108;DHT22;10712;52.944;9.098;2023-05-29T06:21:02;10.40;75.90
21108;DHT22;10712;52.944;9.098;2023-05-29T06:23:29;10.40;75.80
21108;DHT22;10712;52.944;9.098;2023-05-29T06:25:55;10.40;76.10
21108;DHT22;10712;52.944;9.098;2023-05-29T06:28:21;10.50;76.50
21108;DHT22;10712;52.944;9.098;2023-05-29T06:30:47;10.50;76.00
21108;DHT22;10712;52.944;9.098;2023-05-29T06:33:13;10.60;75.70
21108;DHT22;10712;52.944;9.098;2023-05-29T06:35:41;10.60;75.50
21108;DHT22;10712;52.944;9.098;2023-05-29T06:38:07;10.70;75.90
21108;DHT22;10712;52.944;9.098;2023-05-29T06:40:33;10.80;75.70
21108;DHT22;10712;52.944;9.098;2023-05-29T06:42:59;10.80;75.40
21108;DHT22;10712;52.944;9.098;2023-05-29T06:45:52;10.90;75.00
21108;DHT22;10712;52.944;9.098;2023-05-29T06:48:18;11.00;74.50
21108;DHT22;10712;52.944;9.098;2023-05-29T06:50:46;11.10;74.20
21108;DHT22;10712;52.944;9.098;2023-05-29T06:53:31;11.20;74.10
21108;DHT22;10712;52.944;9.098;2023-05-29T06:55:59;11.20;74.50
21108;DHT22;10712;52.944;9.098;2023-05-29T06:58:26;11.30;74.80
21108;DHT22;10712;52.944;9.098;2023-05-29T07:00:52;11.30;74.40
21108;DHT22;10712;52.944;9.098;2023-05-29T07:03:27;11.40;74.30
21108;DHT22;10712;52.944;9.098;2023-05-29T07:05:54;11.50;74.20
21108;DHT22;10712;52.944;9.098;2023-05-29T07:08:20;11.60;74.40
21108;DHT22;10712;52.944;9.098;2023-05-29T07:10:46;11.60;72.60
21108;DHT22;10712;52.944;9.098;2023-05-29T07:13:15;11.70;72.80
21108;DHT22;10712;52.944;9.098;2023-05-29T07:15:42;11.70;71.40
21108;DHT22;10712;52.944;9.098;2023-05-29T07:18:09;11.70;71.70
21108;DHT22;10712;52.944;9.098;2023-05-29T07:20:36;11.80;72.40
21108;DHT22;10712;52.944;9.098;2023-05-29T07:23:03;11.80;72.00
21108;DHT22;10712;52.944;9.098;2023-05-29T07:25:29;11.90;72.30
21108;DHT22;10712;52.944;9.098;2023-05-29T07:27:56;12.10;71.20
21108;DHT22;10712;52.944;9.098;2023-05-29T07:30:23;12.10;70.60
21108;DHT22;10712;52.944;9.098;2023-05-29T07:32:50;12.10;71.50
21108;DHT22;10712;52.944;9.098;2023-05-29T07:35:16;12.20;70.70
21108;DHT22;10712;52.944;9.098;2023-05-29T07:37:42;12.30;70.50
21108;DHT22;10712;52.944;9.098;2023-05-29T07:40:10;12.30;70.60
21108;DHT22;10712;52.944;9.098;2023-05-29T07:43:09;12.40;70.20
21108;DHT22;10712;52.944;9.098;2023-05-29T07:45:46;12.50;68.50
21108;DHT22;10712;52.944;9.098;2023-05-29T07:48:12;12.50;69.20
21108;DHT22;10712;52.944;9.098;2023-05-29T07:50:38;12.60;70.00
21108;DHT22;10712;52.944;9.098;2023-05-29T07:53:04;12.70;69.10
21108;DHT22;10712;52.944;9.098;2023-05-29T07:55:34;12.70;66.70
21108;DHT22;10712;52.944;9.098;2023-05-29T07:58:01;12.70;67.10
21108;DHT22;10712;52.944;9.098;2023-05-29T08:00:27;12.80;66.70
21108;DHT22;10712;52.944;9.098;2023-05-29T08:02:54;12.80;67.20
21108;DHT22;10712;52.944;9.098;2023-05-29T08:05:43;12.80;67.20
21108;DHT22;10712;52.944;9.098;2023-05-29T08:08:11;12.90;67.60
21108;DHT22;10712;52.944;9.098;2023-05-29T08:10:39;12.90;67.60
21108;DHT22;10712;52.944;9.098;2023-05-29T08:13:05;13.00;68.20
21108;DHT22;10712;52.944;9.098;2023-05-29T08:15:33;13.00;67.30
21108;DHT22;10712;52.944;9.098;2023-05-29T08:17:58;13.00;67.60
21108;DHT22;10712;52.944;9.098;2023-05-29T08:20:25;13.10;68.90
21108;DHT22;10712;52.944;9.098;2023-05-29T08:22:51;13.20;69.00
21108;DHT22;10712;52.944;9.098;2023-05-29T08:25:17;13.20;68.70
21108;DHT22;10712;52.944;9.098;2023-05-29T08:27:42;13.30;68.10
21108;DHT22;10712;52.944;9.098;2023-05-29T08:30:09;13.40;68.20
21108;DHT22;10712;52.944;9.098;2023-05-29T08:32:35;13.50;68.40
21108;DHT22;10712;52.944;9.098;2023-05-29T08:35:01;13.60;68.40
21108;DHT22;10712;52.944;9.098;2023-05-29T08:37:27;13.60;67.60
21108;DHT22;10712;52.944;9.098;2023-05-29T08:39:53;13.60;66.20
21108;DHT22;10712;52.944;9.098;2023-05-29T08:42:21;13.60;66.00
21108;DHT22;10712;52.944;9.098;2023-05-29T08:44:48;13.60;66.20
21108;DHT22;10712;52.944;9.098;2023-05-29T08:47:20;13.70;67.10
21108;DHT22;10712;52.944;9.098;2023-05-29T08:49:54;13.80;67.20
21108;DHT22;10712;52.944;9.098;2023-05-29T08:52:24;13.90;66.40
21108;DHT22;10712;52.944;9.098;2023-05-29T08:54:54;14.00;68.00
21108;DHT22;10712;52.944;9.098;2023-05-29T08:57:20;14.10;67.70
21108;DHT22;10712;52.944;9.098;2023-05-29T08:59:47;14.20;66.70
21108;DHT22;10712;52.944;9.098;2023-05-29T09:02:17;14.20;65.80
21108;DHT22;10712;52.944;9.098;2023-05-29T09:04:43;14.20;65.50
21108;DHT22;10712;52.944;9.098;2023-05-29T09:07:18;14.20;65.70
21108;DHT22;10712;52.944;9.098;2023-05-29T09:09:45;14.20;65.00
21108;DHT22;10712;52.944;9.098;2023-05-29T09:12:12;14.30;66.00
21108;DHT22;10712;52.944;9.098;2023-05-29T09:14:40;14.30;65.20
21108;DHT22;10712;52.944;9.098;2023-05-29T09:17:08;14.40;64.50
21108;DHT22;10712;52.944;9.098;2023-05-29T09:19:35;14.40;64.90
21108;DHT22;10712;52.944;9.098;2023-05-29T09:22:03;14.40;63.20
21108;DHT22;10712;52.944;9.098;2023-05-29T09:24:32;14.50;64.20
21108;DHT22;10712;52.944;9.098;2023-05-29T09:27:00;14.60;64.70
21108;DHT22;10712;52.944;9.098;2023-05-29T09:29:31;14.80;64.60
21108;DHT22;10712;52.944;9.098;2023-05-29T09:31:58;14.90;65.00
21108;DHT22;10712;52.944;9.098;2023-05-29T09:34:25;15.00;60.90
21108;DHT22;10712;52.944;9.098;2023-05-29T09:37:01;15.00;61.30
21108;DHT22;10712;52.944;9.098;2023-05-29T09:39:54;15.00;60.50
21108;DHT22;10712;52.944;9.098;2023-05-29T09:42:19;15.00;60.80
21108;DHT22;10712;52.944;9.098;2023-05-29T09:44:49;14.90;60.50
21108;DHT22;10712;52.944;9.098;2023-05-29T09:47:19;15.00;62.20
21108;DHT22;10712;52.944;9.098;2023-05-29T09:49:46;15.00;62.90
21108;DHT22;10712;52.944;9.098;2023-05-29T09:52:12;15.10;62.30
21108;DHT22;10712;52.944;9.098;2023-05-29T09:54:44;15.10;60.60
21108;DHT22;10712;52.944;9.098;2023-05-29T09:57:14;15.10;62.00
21108;DHT22;10712;52.944;9.098;2023-05-29T09:59:43;15.10;62.00
21108;DHT22;10712;52.944;9.098;2023-05-29T10:02:17;15.10;62.50
21108;DHT22;10712;52.944;9.098;2023-05-29T10:04:44;15.20;62.90
21108;DHT22;10712;52.944;9.098;2023-05-29T10:07:25;15.20;62.30
21108;DHT22;10712;52.944;9.098;2023-05-29T10:10:02;15.30;62.60
21108;DHT22;10712;52.944;9.098;2023-05-29T10:12:29;15.40;62.80
21108;DHT22;10712;52.944;9.098;2023-05-29T10:14:59;15.40;63.50
21108;DHT22;10712;52.944;9.098;2023-05-29T10:17:34;15.50;61.70
21108;DHT22;10712;52.944;9.098;2023-05-29T10:20:04;15.60;63.20
21108;DHT22;10712;52.944;9.098;2023-05-29T10:22:39;15.70;62.50
21108;DHT22;10712;52.944;9.098;2023-05-29T10:25:14;15.80;61.00
21108;DHT22;10712;52.944;9.098;2023-05-29T10:27:43;15.90;61.10
21108;DHT22;10712;52.944;9.098;2023-05-29T10:30:24;16.00;60.40
21108;DHT22;10712;52.944;9.098;2023-05-29T10:35:48;16.20;58.20
21108;DHT22;10712;52.944;9.098;2023-05-29T10:38:36;16.10;56.80
21108;DHT22;10712;52.944;9.098;2023-05-29T10:43:54;16.00;59.00
21108;DHT22;10712;52.944;9.098;2023-05-29T10:46:20;16.00;59.70
21108;DHT22;10712;52.944;9.098;2023-05-29T10:48:50;16.10;60.30
21108;DHT22;10712;52.944;9.098;2023-05-29T10:51:27;16.20;58.70
21108;DHT22;10712;52.944;9.098;2023-05-29T10:53:54;16.20;60.20
21108;DHT22;10712;52.944;9.098;2023-05-29T10:56:28;16.30;61.50
21108;DHT22;10712;52.944;9.098;2023-05-29T10:58:57;16.40;60.40
21108;DHT22;10712;52.944;9.098;2023-05-29T11:01:24;16.50;60.50
21108;DHT22;10712;52.944;9.098;2023-05-29T11:03:55;16.60;61.00
21108;DHT22;10712;52.944;9.098;2023-05-29T11:06:39;16.70;61.40
21108;DHT22;10712;52.944;9.098;2023-05-29T11:09:06;16.80;61.00
21108;DHT22;10712;52.944;9.098;2023-05-29T11:15:06;16.90;60.50
21108;DHT22;10712;52.944;9.098;2023-05-29T11:25:20;17.00;60.40
21108;DHT22;10712;52.944;9.098;2023-05-29T11:27:46;17.10;59.80
21108;DHT22;10712;52.944;9.098;2023-05-29T11:30:12;17.10;58.20
21108;DHT22;10712;52.944;9.098;2023-05-29T11:32:40;17.10;58.40
21108;DHT22;10712;52.944;9.098;2023-05-29T11:35:08;17.10;58.70
21108;DHT22;10712;52.944;9.098;2023-05-29T11:37:37;17.10;58.40
21108;DHT22;10712;52.944;9.098;2023-05-29T11:40:06;17.10;59.00
21108;DHT22;10712;52.944;9.098;2023-05-29T11:42:41;17.10;58.80
21108;DHT22;10712;52.944;9.098;2023-05-29T11:45:14;17.20;59.00
21108;DHT22;10712;52.944;9.098;2023-05-29T11:47:52;17.30;60.00
21108;DHT22;10712;52.944;9.098;2023-05-29T11:50:29;17.40;59.40
21108;DHT22;10712;52.944;9.098;2023-05-29T11:52:57;17.50;59.00
21108;DHT22;10712;52.944;9.098;2023-05-29T11:55:25;17.60;58.60
21108;DHT22;10712;52.944;9.098;2023-05-29T11:58:01;17.60;58.60
21108;DHT22;10712;52.944;9.098;2023-05-29T12:00:37;17.60;59.10
21108;DHT22;10712;52.944;9.098;2023-05-29T12:03:05;17.60;56.90
21108;DHT22;10712;52.944;9.098;2023-05-29T12:05:43;17.50;56.20
21108;DHT22;10712;52.944;9.098;2023-05-29T12:08:11;17.50;56.30
21108;DHT22;10712;52.944;9.098;2023-05-29T12:10:37;17.50;56.50
21108;DHT22;10712;52.944;9.098;2023-05-29T12:13:03;17.40;56.50
21108;DHT22;10712;52.944;9.098;2023-05-29T12:15:28;17.40;55.90
21108;DHT22;10712;52.944;9.098;2023-05-29T12:17:55;17.40;56.20
21108;DHT22;10712;52.944;9.098;2023-05-29T12:20:24;17.50;55.50
21108;DHT22;10712;52.944;9.098;2023-05-29T12:22:59;17.50;55.50
21108;DHT22;10712;52.944;9.098;2023-05-29T12:25:27;17.60;56.50
21108;DHT22;10712;52.944;9.098;2023-05-29T12:27:56;17.70;57.50
21108;DHT22;10712;52.944;9.098;2023-05-29T12:30:24;17.70;56.80
21108;DHT22;10712;52.944;9.098;2023-05-29T12:32:51;17.80;57.20
21108;DHT22;10712;52.944;9.098;2023-05-29T12:35:28;17.80;55.50
21108;DHT22;10712;52.944;9.098;2023-05-29T12:37:56;17.80;56.30
21108;DHT22;10712;52.944;9.098;2023-05-29T12:40:24;17.90;57.00
21108;DHT22;10712;52.944;9.098;2023-05-29T12:43:09;18.00;57.20
21108;DHT22;10712;52.944;9.098;2023-05-29T12:45:35;18.10;57.40
21108;DHT22;10712;52.944;9.098;2023-05-29T12:48:02;18.10;57.60
21108;DHT22;10712;52.944;9.098;2023-05-29T12:50:34;18.10;58.20
21108;DHT22;10712;52.944;9.098;2023-05-29T12:53:05;18.20;58.00
21108;DHT22;10712;52.944;9.098;2023-05-29T12:55:33;18.20;58.80
21108;DHT22;10712;52.944;9.098;2023-05-29T12:58:04;18.30;57.30
21108;DHT22;10712;52.944;9.098;2023-05-29T13:00:35;18.40;58.20
21108;DHT22;10712;52.944;9.098;2023-05-29T13:03:02;18.40;59.10
21108;DHT22;10712;52.944;9.098;2023-05-29T13:05:28;18.40;59.00
21108;DHT22;10712;52.944;9.098;2023-05-29T13:07:54;18.50;57.20
21108;DHT22;10712;52.944;9.098;2023-05-29T13:10:21;18.50;58.20
21108;DHT22;10712;52.944;9.098;2023-05-29T13:12:48;18.50;57.90
21108;DHT22;10712;52.944;9.098;2023-05-29T13:15:23;18.60;57.50
21108;DHT22;10712;52.944;9.098;2023-05-29T13:17:50;18.50;56.70
21108;DHT22;10712;52.944;9.098;2023-05-29T13:20:17;18.50;57.50
21108;DHT22;10712;52.944;9.098;2023-05-29T13:22:45;18.60;57.70
21108;DHT22;10712;52.944;9.098;2023-05-29T13:25:13;18.60;56.40
21108;DHT22;10712;52.944;9.098;2023-05-29T13:27:45;18.50;56.30
21108;DHT22;10712;52.944;9.098;2023-05-29T13:30:12;18.50;56.50
21108;DHT22;10712;52.944;9.098;2023-05-29T13:32:39;18.50;56.70
21108;DHT22;10712;52.944;9.098;2023-05-29T13:35:06;18.50;56.80
21108;DHT22;10712;52.944;9.098;2023-05-29T13:37:32;18.50;57.50
21108;DHT22;10712;52.944;9.098;2023-05-29T13:39:58;18.50;57.40
21108;DHT22;10712;52.944;9.098;2023-05-29T13:42:24;18.50;54.30
21108;DHT22;10712;52.944;9.098;2023-05-29T13:44:50;18.50;54.90
21108;DHT22;10712;52.944;9.098;2023-05-29T13:47:16;18.50;55.70
21108;DHT22;10712;52.944;9.098;2023-05-29T13:49:42;18.60;56.50
21108;DHT22;10712;52.944;9.098;2023-05-29T13:52:08;18.60;56.40
21108;DHT22;10712;52.944;9.098;2023-05-29T13:54:34;18.70;56.70
21108;DHT22;10712;52.944;9.098;2023-05-29T13:57:02;18.70;58.00
21108;DHT22;10712;52.944;9.098;2023-05-29T13:59:32;18.80;57.70
21108;DHT22;10712;52.944;9.098;2023-05-29T14:01:59;18.90;57.20
21108;DHT22;10712;52.944;9.098;2023-05-29T14:04:25;18.90;57.60
21108;DHT22;10712;52.944;9.098;2023-05-29T14:06:52;19.00;58.00
21108;DHT22;10712;52.944;9.098;2023-05-29T14:09:18;19.00;57.50
21108;DHT22;10712;52.944;9.098;2023-05-29T14:11:53;19.00;57.40
21108;DHT22;10712;52.944;9.098;2023-05-29T14:14:22;19.00;58.10
21108;DHT22;10712;52.944;9.098;2023-05-29T14:16:49;19.00;55.40
21108;DHT22;10712;52.944;9.098;2023-05-29T14:19:15;18.90;56.40
21108;DHT22;10712;52.944;9.098;2023-05-29T14:21:42;18.90;56.50
21108;DHT22;10712;52.944;9.098;2023-05-29T14:24:08;19.00;56.70
21108;DHT22;10712;52.944;9.098;2023-05-29T14:26:34;19.00;56.50
21108;DHT22;10712;52.944;9.098;2023-05-29T14:29:01;19.00;56.40
21108;DHT22;10712;52.944;9.098;2023-05-29T14:31:27;19.10;57.50
21108;DHT22;10712;52.944;9.098;2023-05-29T14:33:53;19.00;56.90
21108;DHT22;10712;52.944;9.098;2023-05-29T14:36:18;19.00;55.60
21108;DHT22;10712;52.944;9.098;2023-05-29T14:38:44;18.90;56.40
21108;DHT22;10712;52.944;9.098;2023-05-29T14:41:11;18.90;56.90
21108;DHT22;10712;52.944;9.098;2023-05-29T14:43:41;18.90;57.90
21108;DHT22;10712;52.944;9.098;2023-05-29T14:46:08;18.90;57.30
21108;DHT22;10712;52.944;9.098;2023-05-29T14:48:35;18.90;56.40
21108;DHT22;10712;52.944;9.098;2023-05-29T14:51:01;18.90;56.70
21108;DHT22;10712;52.944;9.098;2023-05-29T14:53:27;18.80;56.00
21108;DHT22;10712;52.944;9.098;2023-05-29T14:55:53;18.90;56.60
21108;DHT22;10712;52.944;9.098;2023-05-29T14:58:21;18.90;56.80
21108;DHT22;10712;52.944;9.098;2023-05-29T15:00:47;18.90;56.30
21108;DHT22;10712;52.944;9.098;2023-05-29T15:03:13;18.90;55.90
21108;DHT22;10712;52.944;9.098;2023-05-29T15:05:38;18.90;55.60
21108;DHT22;10712;52.944;9.098;2023-05-29T15:08:04;18.90;56.50
21108;DHT22;10712;52.944;9.098;2023-05-29T15:10:30;18.90;56.20
21108;DHT22;10712;52.944;9.098;2023-05-29T15:12:56;18.80;55.90
21108;DHT22;10712;52.944;9.098;2023-05-29T15:15:31;18.80;55.80
21108;DHT22;10712;52.944;9.098;2023-05-29T15:17:57;18.70;55.80
21108;DHT22;10712;52.944;9.098;2023-05-29T15:20:23;18.70;56.20
21108;DHT22;10712;52.944;9.098;2023-05-29T15:22:50;18.70;56.00
21108;DHT22;10712;52.944;9.098;2023-05-29T15:25:20;18.70;55.80
21108;DHT22;10712;52.944;9.098;2023-05-29T15:27:47;18.60;55.40
21108;DHT22;10712;52.944;9.098;2023-05-29T15:30:15;18.60;55.50
21108;DHT22;10712;52.944;9.098;2023-05-29T15:32:43;18.50;55.60
21108;DHT22;10712;52.944;9.098;2023-05-29T15:35:10;18.50;55.90
21108;DHT22;10712;52.944;9.098;2023-05-29T15:37:37;18.50;57.20
21108;DHT22;10712;52.944;9.098;2023-05-29T15:40:04;18.50;56.20
21108;DHT22;10712;52.944;9.098;2023-05-29T15:42:32;18.40;56.10
21108;DHT22;10712;52.944;9.098;2023-05-29T15:44:58;18.40;56.00
21108;DHT22;10712;52.944;9.098;2023-05-29T15:47:24;18.40;56.10
21108;DHT22;10712;52.944;9.098;2023-05-29T15:49:50;18.30;55.50
21108;DHT22;10712;52.944;9.098;2023-05-29T15:52:16;18.30;55.60
21108;DHT22;10712;52.944;9.098;2023-05-29T15:54:42;18.20;55.50
21108;DHT22;10712;52.944;9.098;2023-05-29T15:57:08;18.20;55.80
21108;DHT22;10712;52.944;9.098;2023-05-29T15:59:34;18.20;55.20
21108;DHT22;10712;52.944;9.098;2023-05-29T16:02:02;18.20;54.60
21108;DHT22;10712;52.944;9.098;2023-05-29T16:04:28;18.10;54.30
21108;DHT22;10712;52.944;9.098;2023-05-29T16:06:54;18.10;54.60
21108;DHT22;10712;52.944;9.098;2023-05-29T16:09:20;18.00;53.00